Time;durP1;ratioP1;P1;durP2;ratioP2;P2;SDS_P1;SDS_P2;PMS_P1;PMS_P2;Temp;Humidity;BMP_temperature;BMP_pressure;BME280_temperature;BME280_humidity;BME280_pressure;Samples;Min_cycle;Max_cycle;Signal;HPM_P1;HPM_P2
2022/08/02 00:02:21;;;;;;;3.83;1.80;;;;;;;25.76;49.14;98213.50;4995365;28;20017;-58
2022/08/02 00:04:47;;;;;;;5.35;1.98;;;;;;;25.81;48.81;98206.38;4999067;28;20950;-58
2022/08/02 00:07:14;;;;;;;4.18;1.85;;;;;;;25.74;48.77;98204.94;4999619;28;20030;-59
2022/08/02 00:09:40;;;;;;;4.20;1.85;;;;;;;25.67;49.61;98195.31;4979388;28;20029;-59
2022/08/02 00:12:05;;;;;;;4.75;1.90;;;;;;;25.76;49.51;98197.53;5002603;28;20024;-59
2022/08/02 00:14:31;;;;;;;5.18;1.90;;;;;;;25.70;49.89;98200.16;4999124;28;20108;-59
2022/08/02 00:16:56;;;;;;;3.78;1.70;;;;;;;25.70;49.94;98194.00;4980406;28;20482;-60
2022/08/02 00:19:22;;;;;;;4.00;2.10;;;;;;;25.67;50.26;98199.84;4998898;28;20033;-62
2022/08/02 00:21:47;;;;;;;4.45;2.17;;;;;;;25.49;50.52;98174.41;4999476;28;20022;-60
2022/08/02 00:24:12;;;;;;;4.78;2.35;;;;;;;25.26;50.88;98171.00;4992508;28;20034;-63
2022/08/02 00:26:38;;;;;;;5.03;2.42;;;;;;;25.44;51.00;98214.28;4991381;28;20030;-59
2022/08/02 00:29:03;;;;;;;6.40;2.70;;;;;;;25.43;51.42;98210.81;4986961;28;20025;-60
2022/08/02 00:31:29;;;;;;;5.30;2.90;;;;;;;25.44;51.26;98214.28;5000258;28;20060;-63
2022/08/02 00:33:54;;;;;;;5.53;2.72;;;;;;;25.24;51.05;98178.41;4996338;28;20629;-59
2022/08/02 00:36:19;;;;;;;6.45;3.10;;;;;;;25.46;50.96;98218.31;4994269;28;20117;-60
2022/08/02 00:38:46;;;;;;;5.53;3.17;;;;;;;25.37;51.21;98216.31;4979138;28;20026;-60
2022/08/02 00:41:15;;;;;;;7.25;2.95;;;;;;;25.32;51.25;98211.78;4996642;28;20076;-60
2022/08/02 00:43:41;;;;;;;6.35;3.67;;;;;;;25.22;51.25;98208.97;4982299;28;20029;-60
2022/08/02 00:46:06;;;;;;;6.10;3.38;;;;;;;25.18;51.24;98211.31;4997053;28;20476;-62
2022/08/02 00:48:32;;;;;;;6.30;3.53;;;;;;;25.13;51.25;98206.75;4998766;28;20033;-61
2022/08/02 00:50:57;;;;;;;7.15;3.60;;;;;;;25.17;51.22;98212.34;4996906;28;20053;-59
2022/08/02 00:53:22;;;;;;;7.25;3.95;;;;;;;25.21;51.24;98215.31;5000197;28;20040;-58
2022/08/02 00:55:48;;;;;;;7.88;3.80;;;;;;;25.21;51.19;98212.66;4997428;28;20165;-61
2022/08/02 00:58:13;;;;;;;5.78;3.47;;;;;;;25.20;51.26;98217.19;4997915;28;20037;-59
2022/08/02 01:00:38;;;;;;;7.15;3.70;;;;;;;25.19;51.06;98212.09;4999616;28;20037;-61
2022/08/02 01:03:04;;;;;;;7.65;3.53;;;;;;;25.10;50.89;98191.28;4996335;28;20100;-59
2022/08/02 01:05:29;;;;;;;6.93;3.08;;;;;;;25.22;50.97;98211.63;4998048;28;20034;-59
2022/08/02 01:07:55;;;;;;;6.22;3.50;;;;;;;25.26;51.05;98207.44;4998944;28;20045;-59
2022/08/02 01:10:20;;;;;;;5.95;3.20;;;;;;;25.03;51.52;98176.59;4996513;28;20871;-59
2022/08/02 01:12:46;;;;;;;5.90;3.70;;;;;;;24.97;51.96;98170.41;4991625;28;20030;-61
2022/08/02 01:15:12;;;;;;;5.97;3.40;;;;;;;25.22;52.13;98214.28;4987443;28;20014;-59
2022/08/02 01:18:08;;;;;;;5.93;3.10;;;;;;;25.14;52.63;98211.00;4975795;28;20033;-59
2022/08/02 01:20:59;;;;;;;7.45;3.40;;;;;;;25.07;53.42;98213.06;4993588;28;20037;-60
2022/08/02 01:23:34;;;;;;;7.30;3.67;;;;;;;25.02;53.66;98217.50;4992984;28;20320;-62
2022/08/02 01:26:25;;;;;;;6.00;3.55;;;;;;;24.92;53.98;98216.34;4994749;28;20018;-58
2022/08/02 01:28:53;;;;;;;5.97;3.08;;;;;;;24.91;54.33;98213.94;4996778;28;20037;-58
2022/08/02 01:31:22;;;;;;;6.13;3.50;;;;;;;24.95;53.97;98215.03;4977893;28;20022;-62
2022/08/02 01:33:52;;;;;;;5.22;2.95;;;;;;;24.90;53.99;98199.84;4996883;28;20798;-58
2022/08/02 01:36:18;;;;;;;5.95;3.38;;;;;;;24.90;53.82;98225.63;4978111;28;20034;-58
2022/08/02 01:38:49;;;;;;;5.90;3.40;;;;;;;24.72;54.47;98200.94;4980703;28;20026;-60
2022/08/02 01:41:20;;;;;;;5.97;3.28;;;;;;;24.78;54.18;98212.44;4986390;28;20021;-59
2022/08/02 01:43:47;;;;;;;5.90;3.25;;;;;;;24.78;54.09;98211.63;4983376;28;20025;-60
2022/08/02 01:46:14;;;;;;;5.50;3.20;;;;;;;24.75;54.13;98211.09;5005093;28;20143;-60
2022/08/02 01:48:40;;;;;;;5.35;2.92;;;;;;;24.71;54.40;98214.47;4985911;28;20693;-62
2022/08/02 01:51:07;;;;;;;5.45;3.25;;;;;;;24.74;54.17;98224.63;4986552;28;20289;-61
2022/08/02 01:53:34;;;;;;;5.85;3.03;;;;;;;24.78;54.07;98227.59;4985229;28;20054;-58
2022/08/02 01:56:00;;;;;;;5.70;3.25;;;;;;;24.58;54.10;98206.88;4977096;28;20034;-59
2022/08/02 01:58:28;;;;;;;6.43;3.15;;;;;;;24.77;53.90;98223.31;4980861;28;20365;-61
2022/08/02 02:00:56;;;;;;;6.80;3.33;;;;;;;24.81;53.75;98238.53;4983166;28;20038;-60
2022/08/02 02:03:23;;;;;;;6.32;2.92;;;;;;;24.84;53.68;98235.38;5000293;28;20621;-58
2022/08/02 02:05:51;;;;;;;6.18;3.05;;;;;;;24.88;53.56;98241.81;4982955;28;20048;-60
2022/08/02 02:08:21;;;;;;;5.22;2.90;;;;;;;24.93;53.63;98225.13;4980559;28;20761;-61
2022/08/02 02:10:47;;;;;;;5.72;3.00;;;;;;;24.81;53.54;98230.56;4979809;28;20034;-59
2022/08/02 02:13:15;;;;;;;5.93;3.20;;;;;;;24.81;53.99;98233.22;4998440;28;20026;-62
2022/08/02 02:15:46;;;;;;;6.45;3.20;;;;;;;24.90;53.57;98233.59;4984311;28;20548;-60
2022/08/02 02:18:31;;;;;;;5.68;2.92;;;;;;;24.81;54.39;98241.19;5002393;28;20033;-60
2022/08/02 02:20:57;;;;;;;6.70;3.42;;;;;;;24.89;54.85;98240.75;4992786;28;20050;-60
2022/08/02 02:23:22;;;;;;;4.82;2.92;;;;;;;24.78;54.39;98240.88;4996381;28;20447;-59
2022/08/02 02:25:48;;;;;;;5.63;3.10;;;;;;;24.71;54.60;98215.25;5001370;28;20065;-59
2022/08/02 02:28:22;;;;;;;5.40;2.95;;;;;;;24.72;54.55;98205.47;5000892;28;20106;-60
2022/08/02 02:30:50;;;;;;;5.82;3.00;;;;;;;24.93;55.95;98247.22;4987340;28;20156;-58
2022/08/02 02:33:21;;;;;;;5.88;3.03;;;;;;;24.94;56.05;98242.69;4978103;28;20021;-60
2022/08/02 02:35:49;;;;;;;5.38;3.03;;;;;;;24.87;56.53;98229.56;4980525;28;20087;-60
2022/08/02 02:38:17;;;;;;;5.47;2.70;;;;;;;24.81;57.42;98227.91;4996497;28;20022;-59
2022/08/02 02:40:44;;;;;;;5.15;2.78;;;;;;;24.88;57.83;98225.88;4979407;28;20100;-62
2022/08/02 02:43:10;;;;;;;7.03;2.95;;;;;;;24.76;58.38;98235.81;4982076;28;20548;-61
2022/08/02 02:45:37;;;;;;;6.20;2.67;;;;;;;24.66;58.79;98240.97;4999732;28;20531;-60
2022/08/02 02:48:03;;;;;;;5.10;2.90;;;;;;;24.49;59.56;98246.31;4981801;28;20152;-59
2022/08/02 02:50:29;;;;;;;8.20;3.17;;;;;;;24.53;58.93;98245.63;4983661;28;20051;-58
2022/08/02 02:52:54;;;;;;;5.43;2.90;;;;;;;24.55;57.73;98221.44;4996310;28;20382;-58
2022/08/02 02:55:21;;;;;;;5.65;2.90;;;;;;;24.50;57.06;98219.50;4981973;28;20030;-58
2022/08/02 02:57:47;;;;;;;6.57;3.08;;;;;;;24.82;57.57;98260.59;4979036;28;20033;-60
2022/08/02 03:00:14;;;;;;;8.55;3.22;;;;;;;24.80;57.23;98257.41;5000847;28;20042;-61
2022/08/02 03:02:41;;;;;;;5.22;2.80;;;;;;;24.89;55.60;98250.59;4983060;28;20068;-63
2022/08/02 03:05:08;;;;;;;6.15;3.03;;;;;;;24.67;56.10;98219.47;4995463;28;20385;-59
2022/08/02 03:07:34;;;;;;;5.90;3.00;;;;;;;24.60;55.67;98229.47;4980768;28;20026;-62
2022/08/02 03:10:02;;;;;;;5.30;2.80;;;;;;;24.65;55.96;98247.38;4990466;28;20042;-61
2022/08/02 03:12:28;;;;;;;5.22;2.85;;;;;;;24.70;54.14;98250.09;4977573;28;20029;-61
2022/08/02 03:14:54;;;;;;;6.18;2.70;;;;;;;24.79;54.96;98245.97;4998330;28;20022;-59
2022/08/02 03:17:19;;;;;;;5.30;2.85;;;;;;;24.84;56.00;98253.19;4982240;28;20113;-58
2022/08/02 03:19:45;;;;;;;5.97;3.00;;;;;;;24.81;56.63;98254.50;4994657;28;20322;-59
2022/08/02 03:22:10;;;;;;;6.57;2.63;;;;;;;24.76;56.88;98254.41;4996794;28;20076;-61
2022/08/02 03:24:37;;;;;;;5.75;2.88;;;;;;;24.79;57.05;98251.28;4997153;28;20157;-60
2022/08/02 03:27:02;;;;;;;5.60;2.85;;;;;;;24.93;56.29;98257.84;4997601;28;20030;-60
2022/08/02 03:29:28;;;;;;;6.03;3.08;;;;;;;24.91;56.11;98262.59;4997059;28;20478;-58
2022/08/02 03:31:53;;;;;;;5.45;2.80;;;;;;;24.90;56.14;98265.50;4995133;28;20026;-57
2022/08/02 03:34:19;;;;;;;7.95;3.28;;;;;;;24.86;55.88;98273.19;4998442;28;20036;-60
2022/08/02 03:36:47;;;;;;;5.90;3.35;;;;;;;24.81;56.26;98278.41;4996611;28;20021;-61
2022/08/02 03:39:13;;;;;;;6.07;2.70;;;;;;;24.80;56.32;98274.13;4982462;28;20341;-61
2022/08/02 03:41:38;;;;;;;5.38;3.03;;;;;;;24.85;55.91;98276.06;4999684;28;20469;-59
2022/08/02 03:44:05;;;;;;;6.68;2.95;;;;;;;24.63;56.34;98249.47;4985114;28;20461;-60
2022/08/02 03:46:31;;;;;;;6.00;2.95;;;;;;;24.74;56.47;98277.78;4996051;28;21083;-59
2022/08/02 03:48:57;;;;;;;5.38;2.72;;;;;;;24.76;55.67;98275.69;4997513;28;20026;-59
2022/08/02 03:51:22;;;;;;;5.32;2.67;;;;;;;24.80;56.10;98291.94;4980334;28;20033;-59
2022/08/02 03:53:48;;;;;;;6.18;2.88;;;;;;;24.73;56.45;98290.28;4999436;28;20022;-58
2022/08/02 03:56:14;;;;;;;6.18;2.95;;;;;;;24.63;57.09;98292.00;4992919;28;20018;-61
2022/08/02 03:58:40;;;;;;;5.47;2.90;;;;;;;24.51;57.13;98290.19;4982559;28;20453;-61
2022/08/02 04:01:05;;;;;;;5.50;3.45;;;;;;;24.34;57.30;98287.53;4982412;28;20029;-61
2022/08/02 04:03:31;;;;;;;6.10;3.00;;;;;;;24.40;57.47;98285.75;5000556;28;20445;-61
2022/08/02 04:05:56;;;;;;;5.00;2.70;;;;;;;24.62;56.68;98299.13;4995327;28;20508;-59
2022/08/02 04:08:21;;;;;;;5.78;2.88;;;;;;;24.56;56.14;98300.13;5000131;28;20104;-59
2022/08/02 04:13:35;;;;;;;6.15;2.90;;;;;;;24.24;56.29;98270.63;4994344;28;20044;-61
2022/08/02 04:16:10;;;;;;;5.53;3.03;;;;;;;24.43;56.10;98309.19;4980824;28;20504;-62
2022/08/02 04:18:40;;;;;;;5.60;3.08;;;;;;;24.40;56.31;98309.66;4978548;28;20029;-60
2022/08/02 04:21:06;;;;;;;5.65;2.85;;;;;;;24.32;56.66;98310.88;4979006;28;20088;-60
2022/08/02 04:23:33;;;;;;;5.82;3.00;;;;;;;24.15;56.09;98280.88;4999356;28;20036;-60
2022/08/02 04:25:59;;;;;;;6.18;2.97;;;;;;;24.30;56.53;98317.50;5000122;28;20025;-61
2022/08/02 04:28:25;;;;;;;5.90;3.13;;;;;;;24.12;56.79;98323.84;4999496;28;20037;-60
2022/08/02 04:30:51;;;;;;;7.35;3.00;;;;;;;24.13;56.01;98328.91;4974235;28;20022;-60
2022/08/02 04:33:17;;;;;;;5.70;2.78;;;;;;;23.99;55.65;98304.50;5000517;28;20624;-59
2022/08/02 04:35:44;;;;;;;7.40;3.03;;;;;;;24.11;55.92;98324.88;4998665;28;20105;-60
2022/08/02 04:38:12;;;;;;;4.93;2.50;;;;;;;24.32;55.20;98334.78;4980786;28;20045;-62
2022/08/02 04:40:37;;;;;;;5.32;2.88;;;;;;;24.21;55.59;98343.66;4980995;28;20029;-60
2022/08/02 04:43:03;;;;;;;6.82;3.08;;;;;;;24.27;54.89;98342.69;4994268;28;20425;-60
2022/08/02 04:45:29;;;;;;;9.95;3.53;;;;;;;24.21;54.61;98346.31;4992527;28;20027;-59
2022/08/02 04:47:54;;;;;;;7.43;3.28;;;;;;;24.14;54.67;98359.72;4996360;28;20030;-61
2022/08/02 04:50:20;;;;;;;9.90;3.17;;;;;;;24.06;55.37;98365.44;4994526;28;20037;-58
2022/08/02 04:52:45;;;;;;;6.65;3.05;;;;;;;24.07;55.08;98369.69;4997194;28;20040;-62
2022/08/02 04:55:11;;;;;;;9.05;3.08;;;;;;;23.74;55.70;98357.09;5000303;28;20025;-61
2022/08/02 04:57:54;;;;;;;6.93;2.95;;;;;;;23.88;56.00;98369.09;4999368;28;20030;-59
2022/08/02 05:00:20;;;;;;;6.25;2.80;;;;;;;23.82;55.54;98380.66;4999568;28;20042;-60
2022/08/02 05:02:46;;;;;;;8.57;3.17;;;;;;;23.73;55.81;98352.81;5000517;28;20087;-61
2022/08/02 05:05:11;;;;;;;8.40;2.75;;;;;;;24.00;55.70;98382.31;4991604;28;20029;-59
2022/08/02 05:07:37;;;;;;;6.53;2.75;;;;;;;24.05;55.46;98385.06;4994388;28;20733;-59
2022/08/02 05:10:03;;;;;;;5.93;2.67;;;;;;;24.18;54.54;98392.72;5002057;28;20026;-58
2022/08/02 05:12:28;;;;;;;5.65;2.70;;;;;;;23.93;54.91;98355.09;4984214;28;20829;-58
2022/08/02 05:14:54;;;;;;;6.38;2.67;;;;;;;24.26;54.96;98396.88;5003173;28;20362;-60
2022/08/02 05:17:19;;;;;;;6.25;2.45;;;;;;;24.12;55.84;98400.84;4994668;28;20436;-60
2022/08/02 05:19:45;;;;;;;7.40;2.70;;;;;;;24.19;56.23;98409.50;5000785;28;20028;-59
2022/08/02 05:22:10;;;;;;;8.45;3.30;;;;;;;24.28;56.41;98413.38;4998173;28;20034;-60
2022/08/02 05:24:35;;;;;;;7.85;2.95;;;;;;;24.28;56.30;98409.91;5003233;28;20159;-59
2022/08/02 05:27:01;;;;;;;6.78;2.40;;;;;;;24.01;56.95;98415.00;5001293;28;20034;-61
2022/08/02 05:29:26;;;;;;;5.68;2.28;;;;;;;24.24;53.79;98430.00;5000470;28;20109;-61
2022/08/02 05:31:53;;;;;;;3.92;1.40;;;;;;;24.36;43.92;98412.97;5001687;28;20025;-62
2022/08/02 05:34:18;;;;;;;3.65;0.70;;;;;;;25.26;38.03;98437.06;4996601;28;20014;-59
2022/08/02 05:36:44;;;;;;;2.10;0.70;;;;;;;25.71;36.83;98435.25;4998386;28;20049;-59
2022/08/02 05:39:09;;;;;;;2.05;0.70;;;;;;;25.84;35.99;98434.84;4997903;28;20037;-59
2022/08/02 05:41:35;;;;;;;1.85;0.70;;;;;;;25.94;36.15;98446.72;5000830;28;20029;-62
2022/08/02 05:44:01;;;;;;;2.85;0.80;;;;;;;26.08;35.35;98453.28;4998170;28;20908;-59
2022/08/02 05:46:26;;;;;;;2.33;0.82;;;;;;;26.11;35.56;98459.97;4995311;28;20018;-60
2022/08/02 05:48:52;;;;;;;4.10;1.80;;;;;;;25.68;45.78;98457.84;4998847;28;20030;-57
2022/08/02 05:51:35;;;;;;;4.85;2.22;;;;;;;25.45;46.50;98466.84;4997184;28;20029;-59
2022/08/02 05:54:26;;;;;;;5.25;1.80;;;;;;;25.35;46.46;98465.91;4999470;28;20096;-59
2022/08/02 05:57:00;;;;;;;4.25;1.70;;;;;;;25.40;45.46;98484.59;4991850;28;20080;-62
2022/08/02 05:59:39;;;;;;;5.25;1.90;;;;;;;24.92;45.48;98433.59;4997084;28;20486;-60
2022/08/02 06:02:25;;;;;;;3.17;1.25;;;;;;;25.41;42.84;98495.00;4984830;28;20168;-58
2022/08/02 06:05:08;;;;;;;4.38;1.88;;;;;;;25.29;44.18;98494.28;4982360;28;20038;-59
2022/08/02 06:07:35;;;;;;;4.35;2.10;;;;;;;25.17;45.46;98499.66;4998414;28;20476;-60
2022/08/02 06:10:03;;;;;;;4.90;2.35;;;;;;;24.94;46.06;98460.75;4996495;28;20210;-61
2022/08/02 06:12:31;;;;;;;5.87;2.20;;;;;;;24.92;46.27;98476.13;5002883;28;20030;-60
2022/08/02 06:14:58;;;;;;;5.00;2.20;;;;;;;25.18;46.22;98509.25;4982380;28;20042;-59
2022/08/02 06:17:24;;;;;;;5.13;2.10;;;;;;;25.21;45.94;98508.78;4983966;28;20022;-59
2022/08/02 06:19:49;;;;;;;4.38;1.80;;;;;;;25.30;44.99;98512.69;4994690;28;20049;-60
2022/08/02 06:22:15;;;;;;;4.88;2.10;;;;;;;25.32;44.22;98518.56;5001494;28;20421;-59
2022/08/02 06:24:45;;;;;;;4.35;2.13;;;;;;;25.30;44.65;98522.53;5000220;28;20048;-60
2022/08/02 06:27:14;;;;;;;6.55;2.08;;;;;;;25.33;45.26;98514.03;4997987;28;20511;-61
2022/08/02 06:29:45;;;;;;;7.25;2.10;;;;;;;25.26;44.88;98494.78;4982275;28;20033;-58
2022/08/02 06:32:11;;;;;;;6.03;1.90;;;;;;;25.40;44.95;98517.34;4997406;28;20033;-60
2022/08/02 06:34:39;;;;;;;4.60;2.20;;;;;;;25.32;44.49;98494.63;5000882;28;20641;-60
2022/08/02 06:37:21;;;;;;;5.13;2.30;;;;;;;25.63;44.20;98540.31;5000363;28;20043;-60
2022/08/02 06:39:49;;;;;;;4.57;2.05;;;;;;;25.46;44.50;98504.91;4982843;28;20029;-60
2022/08/02 06:42:16;;;;;;;4.93;2.20;;;;;;;25.77;44.46;98543.41;4984727;28;20050;-58
2022/08/02 06:44:42;;;;;;;6.13;2.20;;;;;;;25.78;44.38;98533.59;4993362;28;20030;-58
2022/08/02 06:47:08;;;;;;;8.30;2.50;;;;;;;25.95;44.33;98544.22;4984101;28;20492;-61
2022/08/02 06:49:33;;;;;;;4.60;1.80;;;;;;;25.79;44.69;98545.84;5001248;28;20143;-62
2022/08/02 06:51:59;;;;;;;6.68;2.17;;;;;;;25.61;44.87;98520.28;5001166;28;20032;-58
2022/08/02 06:54:24;;;;;;;5.47;2.28;;;;;;;25.89;44.59;98554.78;4998470;28;20069;-59
2022/08/02 06:56:49;;;;;;;4.82;1.90;;;;;;;25.65;45.05;98522.22;5002415;28;20224;-60
2022/08/02 06:59:15;;;;;;;6.25;2.08;;;;;;;25.77;45.41;98554.06;5000065;28;20025;-59
2022/08/02 07:01:40;;;;;;;5.07;2.10;;;;;;;25.78;45.86;98560.22;4992441;28;20428;-58
2022/08/02 07:04:06;;;;;;;4.40;2.15;;;;;;;25.88;45.57;98553.19;5000212;28;20089;-62
2022/08/02 07:06:31;;;;;;;4.72;2.10;;;;;;;25.90;45.33;98561.72;4990557;28;20029;-63
2022/08/02 07:08:56;;;;;;;5.60;2.05;;;;;;;25.88;46.32;98555.00;4998633;28;20064;-61
2022/08/02 07:11:22;;;;;;;5.13;2.30;;;;;;;25.79;46.32;98551.16;4996364;28;20108;-60
2022/08/02 07:13:48;;;;;;;5.10;2.63;;;;;;;25.64;46.68;98533.91;4983745;28;20068;-59
2022/08/02 07:16:13;;;;;;;4.20;2.00;;;;;;;25.82;46.19;98561.34;4998884;28;20030;-62
2022/08/02 07:18:39;;;;;;;9.95;1.92;;;;;;;25.84;46.34;98569.88;4995600;28;20538;-60
2022/08/02 07:21:05;;;;;;;4.85;2.10;;;;;;;25.68;46.09;98551.03;5004984;28;20560;-62
2022/08/02 07:23:31;;;;;;;5.95;2.20;;;;;;;25.78;46.67;98576.19;4998413;28;20021;-57
2022/08/02 07:25:56;;;;;;;4.25;1.98;;;;;;;25.78;46.40;98573.53;4982410;28;20036;-58
2022/08/02 07:28:21;;;;;;;4.60;1.95;;;;;;;25.54;45.70;98530.31;5011148;28;20026;-58
2022/08/02 07:30:47;;;;;;;4.72;2.00;;;;;;;25.68;44.66;98577.66;5004624;28;20621;-60
2022/08/02 07:33:12;;;;;;;4.32;1.75;;;;;;;25.48;45.09;98583.47;5001031;28;20026;-60
2022/08/02 07:35:38;;;;;;;4.95;2.00;;;;;;;25.49;45.16;98590.41;4997071;28;20018;-59
2022/08/02 07:38:03;;;;;;;5.20;1.90;;;;;;;25.50;45.16;98586.69;5002667;28;20661;-61
2022/08/02 07:40:28;;;;;;;4.85;1.73;;;;;;;25.40;46.30;98559.13;4999398;28;20022;-58
2022/08/02 07:42:55;;;;;;;4.45;1.67;;;;;;;25.47;46.72;98557.09;4995468;28;20030;-64
2022/08/02 07:45:21;;;;;;;4.50;1.65;;;;;;;25.71;46.56;98576.34;4977511;28;20034;-59
2022/08/02 07:47:47;;;;;;;5.28;1.65;;;;;;;25.77;46.33;98580.69;4977088;28;20033;-61
2022/08/02 07:50:15;;;;;;;4.43;1.90;;;;;;;25.80;46.30;98579.41;5001433;28;20026;-63
2022/08/02 07:52:40;;;;;;;5.03;1.88;;;;;;;25.66;45.13;98568.28;4984164;28;20119;-58
2022/08/02 07:55:07;;;;;;;4.78;1.85;;;;;;;25.54;45.70;98528.47;4994000;28;20583;-61
2022/08/02 07:57:33;;;;;;;4.13;1.88;;;;;;;25.87;45.40;98567.53;4974246;28;20032;-59
2022/08/02 07:59:58;;;;;;;3.95;1.70;;;;;;;25.84;44.84;98564.56;5000017;28;20037;-60
2022/08/02 08:02:23;;;;;;;4.93;1.70;;;;;;;25.89;44.86;98557.44;4998934;28;20458;-58
2022/08/02 08:04:49;;;;;;;4.65;1.92;;;;;;;25.88;45.59;98547.03;4995226;28;20112;-58
2022/08/02 08:07:16;;;;;;;6.20;2.53;;;;;;;26.16;43.64;98555.94;5002410;28;20107;-62
2022/08/02 08:09:42;;;;;;;5.47;2.38;;;;;;;26.82;41.95;98561.25;4993914;28;20286;-59
2022/08/02 08:12:08;;;;;;;4.60;1.70;;;;;;;26.88;41.89;98557.56;4996582;28;20022;-58
2022/08/02 08:14:34;;;;;;;4.68;1.95;;;;;;;26.78;40.69;98560.13;4982758;28;20204;-58
2022/08/02 08:16:59;;;;;;;4.70;1.95;;;;;;;26.68;43.16;98562.69;4981351;28;20083;-59
2022/08/02 08:19:25;;;;;;;4.75;2.33;;;;;;;26.46;44.60;98540.28;4992453;28;20053;-59
2022/08/02 08:21:50;;;;;;;4.60;2.05;;;;;;;26.34;44.54;98563.63;4992287;28;20095;-59
2022/08/02 08:24:15;;;;;;;5.47;2.30;;;;;;;26.22;44.61;98565.63;5000971;28;20049;-62
2022/08/02 08:26:41;;;;;;;5.50;2.35;;;;;;;26.24;43.94;98552.84;5000814;28;20041;-58
2022/08/02 08:29:06;;;;;;;6.43;3.10;;;;;;;26.79;43.44;98551.88;5000240;28;20029;-61
2022/08/02 08:31:32;;;;;;;7.80;4.40;;;;;;;27.04;43.78;98556.63;4996633;28;20068;-60
2022/08/02 08:33:58;;;;;;;11.75;4.97;;;;;;;27.76;41.23;98559.88;4980307;28;20352;-62
2022/08/02 08:36:23;;;;;;;5.50;2.20;;;;;;;28.01;42.62;98546.94;4982805;28;20755;-58
2022/08/02 08:38:49;;;;;;;5.60;2.25;;;;;;;27.40;41.83;98516.91;4988426;28;20034;-64
2022/08/02 08:41:16;;;;;;;5.65;2.10;;;;;;;27.50;42.47;98547.41;4998355;28;20026;-58
2022/08/02 08:43:42;;;;;;;5.50;2.20;;;;;;;27.37;43.32;98551.31;4983072;28;20076;-60
2022/08/02 08:46:10;;;;;;;4.50;1.90;;;;;;;27.49;42.47;98548.47;4997416;28;20368;-61
2022/08/02 08:48:40;;;;;;;4.53;2.00;;;;;;;28.14;40.98;98549.91;4998442;28;20018;-60
2022/08/02 08:51:11;;;;;;;5.63;2.35;;;;;;;28.28;39.68;98546.78;4982151;28;20030;-59
2022/08/02 08:53:42;;;;;;;4.55;2.13;;;;;;;29.09;38.16;98542.66;4997040;28;20571;-61
2022/08/02 08:56:10;;;;;;;5.15;2.08;;;;;;;29.41;38.84;98550.44;4980265;28;20033;-59
2022/08/02 08:58:37;;;;;;;5.28;2.25;;;;;;;29.34;39.48;98525.81;4982121;28;20032;-61
2022/08/02 09:01:03;;;;;;;5.00;2.20;;;;;;;29.21;38.44;98529.06;4994954;28;20038;-58
2022/08/02 09:03:29;;;;;;;5.32;2.13;;;;;;;29.70;38.70;98545.31;4984309;28;20587;-59
2022/08/02 09:05:56;;;;;;;4.50;2.00;;;;;;;30.33;37.14;98519.09;4996635;28;20113;-61
2022/08/02 09:08:22;;;;;;;5.72;1.90;;;;;;;30.25;35.77;98545.41;4979039;28;20680;-60
2022/08/02 09:10:48;;;;;;;5.43;1.98;;;;;;;30.62;34.79;98521.91;4987445;28;20051;-58
2022/08/02 09:13:22;;;;;;;4.43;1.92;;;;;;;30.69;34.55;98543.06;4998707;28;20033;-58
2022/08/02 09:15:59;;;;;;;4.93;2.30;;;;;;;31.02;35.07;98536.13;4981787;28;20034;-59
2022/08/02 09:18:33;;;;;;;4.13;2.00;;;;;;;30.87;35.00;98518.25;4979618;28;20662;-60
2022/08/02 09:21:03;;;;;;;4.38;2.10;;;;;;;29.76;36.63;98537.28;5001101;28;20026;-58
2022/08/02 09:23:38;;;;;;;4.03;1.95;;;;;;;28.72;38.39;98538.34;4994047;28;20018;-58
2022/08/02 09:26:06;;;;;;;6.00;2.15;;;;;;;28.44;39.99;98540.41;4999220;28;20914;-59
2022/08/02 09:28:34;;;;;;;4.60;2.10;;;;;;;28.03;41.46;98537.56;5008573;28;20139;-58
2022/08/02 09:31:04;;;;;;;3.97;2.10;;;;;;;27.63;41.90;98504.22;4980108;28;20033;-60
2022/08/02 09:33:30;;;;;;;5.28;2.00;;;;;;;27.67;41.60;98534.69;4997563;28;20189;-58
2022/08/02 09:35:59;;;;;;;4.20;2.30;;;;;;;28.10;40.87;98540.03;4994342;28;20470;-59
2022/08/02 09:38:25;;;;;;;5.43;2.00;;;;;;;28.51;39.11;98530.28;4998693;28;20033;-59
2022/08/02 09:40:50;;;;;;;4.78;1.90;;;;;;;28.67;39.56;98504.38;4998644;28;20038;-61
2022/08/02 09:43:16;;;;;;;4.22;1.85;;;;;;;28.85;39.58;98537.03;4980168;28;20026;-60
2022/08/02 09:45:41;;;;;;;3.80;1.88;;;;;;;28.75;40.29;98535.16;5000391;28;20052;-62
2022/08/02 09:48:08;;;;;;;4.85;2.20;;;;;;;28.76;41.71;98548.25;4979884;28;20044;-61
2022/08/02 09:50:35;;;;;;;4.53;2.10;;;;;;;28.87;41.27;98537.56;4983963;28;20022;-58
2022/08/02 09:53:02;;;;;;;3.95;2.08;;;;;;;28.54;40.92;98550.34;4984360;28;20060;-61
2022/08/02 09:55:28;;;;;;;4.82;2.40;;;;;;;28.21;40.03;98538.19;4984725;28;20544;-59
2022/08/02 09:57:53;;;;;;;4.70;2.42;;;;;;;28.27;40.79;98543.28;4994397;28;20038;-59
2022/08/02 10:00:19;;;;;;;6.05;2.38;;;;;;;28.30;41.80;98539.28;4993147;28;20034;-59
2022/08/02 10:03:04;;;;;;;4.88;2.33;;;;;;;28.40;40.02;98539.31;4998451;28;20034;-59
2022/08/02 10:05:29;;;;;;;4.22;2.10;;;;;;;28.31;40.31;98538.22;4998039;28;20033;-60
2022/08/02 10:07:56;;;;;;;6.28;2.00;;;;;;;28.33;40.06;98528.88;5000386;28;20042;-60
2022/08/02 10:10:22;;;;;;;5.47;2.13;;;;;;;28.38;40.20;98536.94;4983831;28;20026;-61
2022/08/02 10:12:47;;;;;;;5.20;2.50;;;;;;;28.31;39.88;98539.03;4983738;28;20457;-59
2022/08/02 10:15:14;;;;;;;6.25;2.30;;;;;;;28.35;39.47;98539.31;5001174;28;20090;-60
2022/08/02 10:17:40;;;;;;;5.28;2.17;;;;;;;28.35;39.39;98537.44;4982789;28;20046;-60
2022/08/02 10:20:05;;;;;;;5.57;2.08;;;;;;;28.58;38.96;98531.91;4999345;28;20133;-58
2022/08/02 10:22:33;;;;;;;4.95;2.10;;;;;;;28.75;38.83;98525.25;4993904;28;20025;-60
2022/08/02 10:25:02;;;;;;;4.85;1.90;;;;;;;28.81;38.17;98523.38;4998808;28;20044;-58
2022/08/02 10:27:28;;;;;;;4.85;1.95;;;;;;;29.06;37.41;98514.56;4999343;28;20072;-59
2022/08/02 10:29:56;;;;;;;5.32;2.13;;;;;;;29.05;37.30;98510.28;5001245;28;20496;-59
2022/08/02 10:32:41;;;;;;;4.57;2.17;;;;;;;29.19;36.92;98499.88;5000262;28;20892;-59
2022/08/02 10:35:10;;;;;;;3.90;2.00;;;;;;;28.68;37.27;98433.75;4983055;28;20041;-60
2022/08/02 10:37:38;;;;;;;5.70;2.30;;;;;;;29.22;37.79;98501.19;4982095;28;20088;-58
2022/08/02 10:40:04;;;;;;;4.03;1.90;;;;;;;29.30;36.04;98504.13;4995231;28;20265;-60
2022/08/02 10:42:59;;;;;;;4.32;2.00;;;;;;;29.45;36.04;98500.63;4998028;28;20030;-62
2022/08/02 10:45:24;;;;;;;4.55;2.03;;;;;;;29.21;36.03;98475.50;4977419;28;20065;-59
2022/08/02 10:48:02;;;;;;;4.60;2.00;;;;;;;29.26;36.72;98488.88;4995028;28;20168;-60
2022/08/02 10:50:46;;;;;;;5.25;1.90;;;;;;;29.39;36.78;98491.00;4995733;28;20091;-60
2022/08/02 10:53:32;;;;;;;3.85;1.85;;;;;;;29.38;36.40;98494.75;4998277;28;20060;-59
2022/08/02 10:56:03;;;;;;;4.55;2.20;;;;;;;29.27;36.48;98491.28;4983558;28;20033;-59
2022/08/02 10:58:31;;;;;;;4.30;1.95;;;;;;;29.20;36.73;98490.75;4994649;28;20119;-61
2022/08/02 11:01:29;;;;;;;4.35;2.00;;;;;;;29.36;35.66;98472.78;4982768;28;20037;-58
2022/08/02 11:03:58;;;;;;;4.00;2.00;;;;;;;29.48;35.66;98480.53;4989980;28;20148;-61
2022/08/02 11:06:24;;;;;;;4.55;1.98;;;;;;;29.40;36.27;98478.41;5002854;28;20025;-59
2022/08/02 11:08:49;;;;;;;5.93;2.13;;;;;;;29.32;36.43;98469.84;4999146;28;20271;-59
2022/08/02 11:11:17;;;;;;;4.88;2.00;;;;;;;29.25;36.75;98480.03;4996616;28;20365;-60
2022/08/02 11:14:07;;;;;;;4.72;2.05;;;;;;;29.23;36.83;98476.03;4979907;28;20030;-60
2022/08/02 11:17:04;;;;;;;7.97;2.08;;;;;;;29.24;36.24;98481.13;4994309;28;20057;-60
2022/08/02 11:19:30;;;;;;;4.32;2.20;;;;;;;29.23;36.62;98474.16;4999869;28;20029;-60
2022/08/02 11:22:04;;;;;;;4.50;1.80;;;;;;;29.29;36.38;98464.25;4987240;28;20027;-61
2022/08/02 11:24:47;;;;;;;4.45;2.00;;;;;;;29.49;36.68;98461.50;4974672;28;20026;-60
2022/08/02 11:27:19;;;;;;;3.85;1.75;;;;;;;29.55;35.49;98461.50;4993764;28;20029;-61
2022/08/02 11:29:45;;;;;;;5.90;2.00;;;;;;;29.56;35.38;98460.44;4998311;28;20026;-58
2022/08/02 11:32:17;;;;;;;6.45;2.67;;;;;;;29.61;35.71;98452.38;4982281;28;20041;-62
2022/08/02 11:34:45;;;;;;;6.13;2.10;;;;;;;29.53;35.12;98445.69;4995858;28;20036;-61
2022/08/02 11:37:11;;;;;;;5.65;1.77;;;;;;;29.65;36.04;98451.56;4998651;28;20092;-59
2022/08/02 11:39:37;;;;;;;4.38;2.00;;;;;;;29.54;35.50;98404.47;4983661;28;20675;-61
2022/08/02 11:42:02;;;;;;;5.00;2.20;;;;;;;29.57;36.01;98429.88;4995945;28;20030;-60